createdAt,value
2023-03-29T00:02:30.658Z,3.70
2023-03-29T00:05:02.222Z,3.50
2023-03-29T00:07:33.546Z,3.53
2023-03-29T00:10:02.716Z,4.00
2023-03-29T00:12:29.840Z,3.50
2023-03-29T00:14:57.195Z,3.83
2023-03-29T00:17:24.364Z,3.85
2023-03-29T00:19:51.582Z,3.65
2023-03-29T00:22:18.812Z,3.75
2023-03-29T00:24:47.999Z,3.53
2023-03-29T00:27:16.721Z,3.25
2023-03-29T00:29:44.049Z,3.58
2023-03-29T00:32:11.635Z,3.33
2023-03-29T00:34:38.807Z,3.72
2023-03-29T00:37:08.969Z,3.42
2023-03-29T00:39:37.204Z,3.70
2023-03-29T00:42:04.397Z,3.40
2023-03-29T00:44:55.602Z,3.45
2023-03-29T00:47:36.213Z,3.53
2023-03-29T00:50:22.759Z,3.63
2023-03-29T00:53:15.784Z,3.58
2023-03-29T00:55:59.977Z,3.55
2023-03-29T00:58:46.796Z,3.63
2023-03-29T01:01:26.137Z,3.30
2023-03-29T01:04:10.035Z,3.30
2023-03-29T01:06:39.489Z,3.45
2023-03-29T01:09:09.854Z,3.85
2023-03-29T01:11:47.868Z,3.97
2023-03-29T01:14:34.657Z,4.18
2023-03-29T01:17:01.835Z,3.88
2023-03-29T01:19:34.821Z,3.60
2023-03-29T01:22:38.887Z,4.15
2023-03-29T01:25:19.702Z,3.83
2023-03-29T01:28:15.217Z,3.50
2023-03-29T01:31:08.625Z,4.85
2023-03-29T01:33:43.010Z,4.05
2023-03-29T01:36:27.317Z,3.65
2023-03-29T01:38:59.222Z,4.20
2023-03-29T01:41:44.189Z,3.67
2023-03-29T01:44:43.994Z,3.88
2023-03-29T01:47:33.120Z,3.90
2023-03-29T01:50:20.488Z,4.07
2023-03-29T01:53:20.952Z,3.92
2023-03-29T01:55:56.130Z,3.97
2023-03-29T01:58:29.722Z,4.18
2023-03-29T02:00:57.433Z,4.20
2023-03-29T02:03:26.834Z,4.78
2023-03-29T02:05:55.495Z,4.03
2023-03-29T02:08:23.693Z,4.28
2023-03-29T02:10:51.995Z,4.25
2023-03-29T02:13:20.218Z,4.47
2023-03-29T02:15:48.285Z,4.88
2023-03-29T02:18:17.897Z,3.80
2023-03-29T02:20:48.647Z,4.07
2023-03-29T02:23:45.590Z,4.53
2023-03-29T02:26:15.324Z,4.22
2023-03-29T02:28:43.674Z,4.40
2023-03-29T02:31:19.218Z,4.70
2023-03-29T02:34:11.769Z,4.35
2023-03-29T02:36:52.258Z,4.38
2023-03-29T02:39:19.801Z,4.70
2023-03-29T02:41:50.157Z,4.90
2023-03-29T02:44:24.549Z,4.30
2023-03-29T02:46:56.829Z,4.70
2023-03-29T02:49:24.375Z,4.13
2023-03-29T02:51:57.742Z,4.90
2023-03-29T02:54:31.779Z,4.95
2023-03-29T02:57:01.884Z,4.43
2023-03-29T02:59:30.275Z,4.82
2023-03-29T03:01:57.402Z,4.78
2023-03-29T03:04:25.678Z,4.65
2023-03-29T03:06:52.884Z,4.95
2023-03-29T03:09:20.049Z,4.45
2023-03-29T03:11:47.199Z,5.15
2023-03-29T03:14:14.918Z,4.72
2023-03-29T03:16:42.645Z,4.90
2023-03-29T03:19:10.577Z,5.25
2023-03-29T03:21:37.978Z,5.22
2023-03-29T03:24:07.785Z,5.22
2023-03-29T03:26:36.121Z,5.38
2023-03-29T03:29:03.223Z,5.13
2023-03-29T03:31:30.895Z,5.78
2023-03-29T03:33:58.190Z,5.53
2023-03-29T03:36:26.261Z,5.65
2023-03-29T03:38:53.578Z,5.82
2023-03-29T03:41:20.823Z,6.05
2023-03-29T03:43:49.199Z,5.75
2023-03-29T05:03:57.256Z,5.65
2023-03-29T05:06:24.449Z,6.55
2023-03-29T05:08:52.468Z,6.10
2023-03-29T05:11:20.599Z,6.70
2023-03-29T05:13:48.179Z,6.03
2023-03-29T05:16:16.109Z,7.60
2023-03-29T05:18:43.907Z,6.55
2023-03-29T05:21:10.991Z,6.72
2023-03-29T05:23:38.482Z,6.13
2023-03-29T05:26:10.022Z,6.68
2023-03-29T05:28:37.153Z,5.85
2023-03-29T05:31:06.090Z,6.15
2023-03-29T05:33:33.876Z,6.97
2023-03-29T05:36:03.768Z,7.13
2023-03-29T05:38:32.947Z,6.70
2023-03-29T05:41:01.051Z,5.70
2023-03-29T05:43:28.628Z,6.45
2023-03-29T05:45:56.530Z,6.22
2023-03-29T05:48:24.547Z,6.50
2023-03-29T05:50:53.920Z,6.75
2023-03-29T05:53:23.941Z,6.75
2023-03-29T05:55:51.727Z,6.38
2023-03-29T05:58:20.781Z,7.40
2023-03-29T06:00:50.025Z,6.15
2023-03-29T06:03:21.739Z,6.47
2023-03-29T06:05:56.538Z,6.75
2023-03-29T06:08:23.677Z,7.00
2023-03-29T06:10:52.068Z,6.88
2023-03-29T06:13:19.346Z,6.50
2023-03-29T06:15:47.023Z,6.78
2023-03-29T06:18:14.460Z,6.80
2023-03-29T06:20:41.720Z,6.85
2023-03-29T06:23:08.896Z,6.80
2023-03-29T06:25:36.037Z,6.75
2023-03-29T06:28:03.128Z,6.63
2023-03-29T06:30:30.252Z,7.55
2023-03-29T06:33:01.143Z,8.30
2023-03-29T06:35:28.410Z,9.98
2023-03-29T06:37:57.234Z,9.65
2023-03-29T06:40:25.054Z,9.65
2023-03-29T06:42:57.987Z,9.65
2023-03-29T06:45:28.814Z,10.95
2023-03-29T06:47:56.813Z,7.45
2023-03-29T06:50:24.376Z,6.82
2023-03-29T06:52:51.790Z,7.20
2023-03-29T06:55:19.169Z,6.57
2023-03-29T06:57:48.594Z,6.68
2023-03-29T07:00:28.254Z,7.22
2023-03-29T07:02:58.210Z,7.22
2023-03-29T07:05:28.482Z,7.28
2023-03-29T07:08:11.557Z,7.40
2023-03-29T07:10:42.874Z,7.43
2023-03-29T07:13:14.743Z,6.70
2023-03-29T07:15:43.249Z,7.63
2023-03-29T07:18:11.115Z,6.72
2023-03-29T07:20:42.692Z,7.40
2023-03-29T07:23:11.850Z,7.68
2023-03-29T07:25:39.506Z,6.88
2023-03-29T07:28:07.026Z,7.38
2023-03-29T07:30:34.160Z,7.13
2023-03-29T07:33:01.350Z,7.05
2023-03-29T07:35:29.347Z,6.70
2023-03-29T07:37:56.679Z,7.38
2023-03-29T07:40:24.354Z,7.00
2023-03-29T07:42:56.973Z,6.50
2023-03-29T07:45:27.672Z,7.47
2023-03-29T07:47:58.071Z,6.18
2023-03-29T07:50:25.934Z,6.70
2023-03-29T07:52:53.448Z,7.45
2023-03-29T07:55:20.881Z,7.68
2023-03-29T07:57:49.940Z,7.07
2023-03-29T08:00:20.848Z,7.35
2023-03-29T08:02:50.943Z,7.17
2023-03-29T08:05:29.251Z,7.35
2023-03-29T08:08:06.741Z,7.25
2023-03-29T08:10:36.842Z,7.50
2023-03-29T08:13:09.332Z,7.15
2023-03-29T08:15:39.254Z,7.82
2023-03-29T08:18:08.062Z,8.13
2023-03-29T08:20:35.269Z,7.25
2023-03-29T08:23:02.605Z,7.65
2023-03-29T08:25:29.838Z,7.20
2023-03-29T08:27:57.338Z,7.60
2023-03-29T08:30:24.754Z,7.30
2023-03-29T08:32:55.134Z,8.25
2023-03-29T08:35:22.451Z,7.50
2023-03-29T08:37:49.736Z,7.70
2023-03-29T08:40:33.208Z,8.05
2023-03-29T08:43:47.249Z,7.90
2023-03-29T08:46:35.359Z,7.65
2023-03-29T08:49:04.855Z,8.38
2023-03-29T08:51:53.188Z,8.45
2023-03-29T08:54:31.084Z,8.18
2023-03-29T08:57:07.736Z,8.95
2023-03-29T08:59:35.095Z,8.68
2023-03-29T09:02:04.510Z,8.43
2023-03-29T09:04:36.698Z,8.77
2023-03-29T09:07:09.123Z,9.43
2023-03-29T09:09:36.842Z,9.90
2023-03-29T09:12:20.896Z,9.88
2023-03-29T09:15:06.841Z,9.02
2023-03-29T09:18:13.333Z,10.20
2023-03-29T09:20:52.571Z,9.52
2023-03-29T09:23:43.994Z,9.45
2023-03-29T09:26:29.670Z,10.20
2023-03-29T09:29:37.869Z,10.10
2023-03-29T09:32:26.777Z,10.68
2023-03-29T09:35:20.169Z,11.18
2023-03-29T09:37:49.547Z,11.05
2023-03-29T09:40:49.399Z,10.85
2023-03-29T09:43:33.173Z,10.98
2023-03-29T09:46:05.042Z,12.18
2023-03-29T09:48:38.022Z,11.45
2023-03-29T09:51:06.468Z,10.85
2023-03-29T09:53:33.856Z,11.40
2023-03-29T09:56:01.586Z,11.30
2023-03-29T09:58:33.139Z,10.95
2023-03-29T10:01:04.670Z,11.98
2023-03-29T10:06:02.884Z,12.35
2023-03-29T10:08:50.733Z,12.43
2023-03-29T10:11:33.178Z,12.48
2023-03-29T10:14:14.240Z,12.52
2023-03-29T10:16:48.142Z,12.88
2023-03-29T10:19:28.766Z,12.73
2023-03-29T10:22:00.512Z,12.57
2023-03-29T10:27:01.406Z,11.40
2023-03-29T10:29:40.298Z,12.35
2023-03-29T10:32:32.675Z,12.77
2023-03-29T10:35:09.666Z,12.75
2023-03-29T10:37:44.418Z,12.30
2023-03-29T10:40:48.964Z,12.50
2023-03-29T10:43:26.749Z,12.20
2023-03-29T10:46:08.283Z,11.98
2023-03-29T10:48:36.520Z,12.70
2023-03-29T10:51:06.186Z,11.95
2023-03-29T10:53:37.794Z,12.57
2023-03-29T10:56:29.675Z,12.70
2023-03-29T11:02:15.876Z,12.32
2023-03-29T11:05:46.824Z,12.38
2023-03-29T11:08:54.829Z,12.00
2023-03-29T11:11:48.627Z,13.20
2023-03-29T11:14:57.120Z,12.43
2023-03-29T11:18:01.159Z,12.70
2023-03-29T11:20:39.274Z,12.07
2023-03-29T11:23:27.934Z,11.63
2023-03-29T11:26:18.526Z,12.07
2023-03-29T11:29:19.690Z,12.13
2023-03-29T11:32:23.610Z,11.93
2023-03-29T11:35:09.362Z,11.45
2023-03-29T11:37:48.791Z,12.52
2023-03-29T11:40:44.663Z,12.75
2023-03-29T11:43:37.321Z,12.48
2023-03-29T11:46:08.962Z,12.35
2023-03-29T11:51:30.962Z,12.88
2023-03-29T11:54:14.319Z,11.75
2023-03-29T11:56:50.155Z,12.80
2023-03-29T11:59:52.332Z,14.02
2023-03-29T12:02:45.219Z,12.90
2023-03-29T12:05:23.594Z,13.38
2023-03-29T12:08:16.924Z,13.57
2023-03-29T12:11:14.100Z,13.73
2023-03-29T12:13:50.252Z,13.90
2023-03-29T12:17:08.758Z,14.65
2023-03-29T12:20:06.165Z,12.98
2023-03-29T12:22:33.927Z,14.00
2023-03-29T12:25:02.685Z,13.43
2023-03-29T12:28:23.936Z,13.55
2023-03-29T12:31:15.223Z,12.43
2023-03-29T12:34:01.575Z,13.30
2023-03-29T12:37:02.476Z,13.82
2023-03-29T12:39:31.221Z,13.77
2023-03-29T12:42:21.185Z,13.60
2023-03-29T12:45:02.478Z,13.25
2023-03-29T12:47:42.815Z,12.73
2023-03-29T12:50:29.074Z,11.80
2023-03-29T12:53:15.461Z,12.15
2023-03-29T12:55:42.701Z,11.75
2023-03-29T12:58:41.661Z,10.93
2023-03-29T13:01:35.803Z,12.18
2023-03-29T13:04:16.042Z,12.00
2023-03-29T13:06:50.987Z,12.30
2023-03-29T13:09:36.858Z,13.25
2023-03-29T13:12:15.975Z,12.77
2023-03-29T13:14:49.397Z,13.57
2023-03-29T13:17:48.902Z,13.38
2023-03-29T13:20:40.546Z,12.88
2023-03-29T13:23:27.249Z,12.45
2023-03-29T13:26:27.294Z,10.82
2023-03-29T13:29:22.630Z,11.60
2023-03-29T13:32:20.900Z,11.38
2023-03-29T13:35:30.323Z,13.73
2023-03-29T13:38:31.557Z,13.85
2023-03-29T13:41:28.932Z,14.52
2023-03-29T13:43:56.925Z,16.13
2023-03-29T13:46:43.111Z,15.65
2023-03-29T13:49:24.032Z,16.27
2023-03-29T13:51:53.984Z,16.57
2023-03-29T13:54:42.080Z,16.00
2023-03-29T13:57:21.111Z,17.23
2023-03-29T14:00:07.330Z,17.08
2023-03-29T14:02:49.671Z,16.33
2023-03-29T14:05:21.825Z,16.17
2023-03-29T14:07:53.139Z,16.35
2023-03-29T14:10:39.685Z,17.02
2023-03-29T14:13:07.385Z,15.65
2023-03-29T14:15:48.751Z,16.25
2023-03-29T14:18:19.790Z,16.10
2023-03-29T14:20:49.432Z,16.35
2023-03-29T14:23:24.498Z,16.80
2023-03-29T14:25:51.785Z,17.02
2023-03-29T14:28:28.102Z,16.25
2023-03-29T14:30:56.372Z,18.42
2023-03-29T14:33:34.604Z,17.08
2023-03-29T14:36:04.470Z,18.00
2023-03-29T14:38:32.361Z,17.88
2023-03-29T14:41:00.623Z,17.50
2023-03-29T14:43:30.563Z,16.27
2023-03-29T14:45:58.778Z,17.45
2023-03-29T14:48:26.632Z,15.68
2023-03-29T14:50:53.896Z,16.02
2023-03-29T14:53:23.001Z,15.80
2023-03-29T14:55:53.984Z,16.83
2023-03-29T14:58:27.593Z,17.50
2023-03-29T15:00:54.931Z,17.85
2023-03-29T15:03:29.464Z,17.05
2023-03-29T15:06:02.789Z,17.73
2023-03-29T15:08:38.801Z,18.40
2023-03-29T15:11:30.919Z,18.70
2023-03-29T15:14:14.015Z,18.60
2023-03-29T15:16:44.186Z,19.63
2023-03-29T15:19:20.486Z,19.63
2023-03-29T15:21:51.529Z,19.42
2023-03-29T15:24:29.416Z,20.33
2023-03-29T15:27:12.655Z,20.75
2023-03-29T15:29:42.993Z,20.40
2023-03-29T15:32:19.417Z,21.52
2023-03-29T15:34:46.734Z,24.33
2023-03-29T15:37:14.231Z,23.60
2023-03-29T15:39:44.339Z,20.58
2023-03-29T15:42:11.808Z,20.20
2023-03-29T15:44:39.636Z,20.98
2023-03-29T15:47:11.045Z,19.75
2023-03-29T15:49:38.270Z,21.42
2023-03-29T15:52:05.963Z,22.52
2023-03-29T15:54:33.958Z,21.27
2023-03-29T15:57:07.900Z,21.85
2023-03-29T15:59:36.667Z,21.38
2023-03-29T16:02:04.870Z,20.40
2023-03-29T16:04:32.021Z,20.85
2023-03-29T16:06:59.268Z,22.20
2023-03-29T16:09:26.364Z,23.00
2023-03-29T16:11:53.494Z,21.70
2023-03-29T16:14:27.404Z,21.58
2023-03-29T16:16:55.732Z,21.80
2023-03-29T16:19:24.569Z,21.20
2023-03-29T16:21:53.062Z,21.30
2023-03-29T16:24:29.903Z,22.92
2023-03-29T16:26:57.301Z,19.90
2023-03-29T16:29:25.487Z,18.83
2023-03-29T16:31:53.329Z,20.25
2023-03-29T16:34:21.905Z,19.88
2023-03-29T16:36:49.708Z,19.60
2023-03-29T16:39:18.467Z,19.95
2023-03-29T16:41:48.529Z,18.88
2023-03-29T16:44:22.474Z,18.50
2023-03-29T16:46:51.696Z,18.63
2023-03-29T16:49:19.271Z,18.02
2023-03-29T16:51:48.115Z,17.98
2023-03-29T16:54:17.942Z,18.55
2023-03-29T16:56:45.387Z,18.52
2023-03-29T16:59:12.799Z,18.80
2023-03-29T17:01:40.980Z,18.13
2023-03-29T17:04:09.137Z,18.80
2023-03-29T17:06:36.461Z,17.83
2023-03-29T17:09:05.243Z,19.17
2023-03-29T17:11:32.764Z,17.75
2023-03-29T17:14:00.340Z,17.83
2023-03-29T17:16:29.315Z,17.42
2023-03-29T17:19:00.636Z,16.88
2023-03-29T17:21:29.406Z,17.15
2023-03-29T17:23:56.749Z,15.32
2023-03-29T17:26:24.030Z,15.80
2023-03-29T17:28:51.114Z,16.80
2023-03-29T17:31:19.805Z,15.55
2023-03-29T17:33:47.854Z,14.90
2023-03-29T17:36:15.061Z,14.70
2023-03-29T17:38:43.276Z,14.00
2023-03-29T17:41:10.385Z,14.45
2023-03-29T17:43:37.489Z,15.45
2023-03-29T17:46:05.026Z,15.63
2023-03-29T17:48:33.075Z,14.30
2023-03-29T17:51:00.333Z,14.23
2023-03-29T17:53:28.065Z,14.65
2023-03-29T17:55:55.193Z,14.27
2023-03-29T17:58:22.372Z,13.35
2023-03-29T18:00:49.656Z,14.38
2023-03-29T18:03:18.472Z,13.90
2023-03-29T18:05:45.839Z,14.77
2023-03-29T18:08:13.934Z,14.60
2023-03-29T18:10:41.349Z,13.95
2023-03-29T18:13:11.472Z,13.63
2023-03-29T18:15:38.590Z,13.82
2023-03-29T18:18:05.770Z,13.88
2023-03-29T18:20:32.943Z,14.10
2023-03-29T18:23:00.061Z,15.13
2023-03-29T18:25:27.236Z,13.70
2023-03-29T18:27:54.291Z,14.43
2023-03-29T18:30:21.598Z,13.48
2023-03-29T18:32:48.836Z,14.43
2023-03-29T18:35:16.186Z,14.27
2023-03-29T18:37:43.986Z,13.55
2023-03-29T18:40:11.457Z,13.73
2023-03-29T18:42:38.556Z,13.82
2023-03-29T18:45:06.357Z,15.40
2023-03-29T18:47:33.804Z,14.18
2023-03-29T18:50:02.599Z,13.90
2023-03-29T18:52:29.701Z,13.65
2023-03-29T18:54:56.869Z,13.30
2023-03-29T18:57:24.042Z,12.98
2023-03-29T18:59:51.240Z,14.13
2023-03-29T19:02:18.540Z,14.02
2023-03-29T19:04:46.517Z,13.63
2023-03-29T19:07:14.080Z,14.13
2023-03-29T19:09:41.878Z,12.93
2023-03-29T19:12:09.407Z,14.00
2023-03-29T19:14:36.662Z,14.13
2023-03-29T19:17:03.816Z,13.20
2023-03-29T19:19:30.935Z,14.25
2023-03-29T19:22:00.414Z,14.10
2023-03-29T19:24:28.241Z,13.55
2023-03-29T19:26:56.654Z,13.43
2023-03-29T19:29:26.105Z,13.45
2023-03-29T19:31:54.758Z,13.10
2023-03-29T19:34:24.043Z,13.43
2023-03-29T19:36:53.642Z,13.20
2023-03-29T19:39:21.255Z,13.27
2023-03-29T19:41:48.620Z,12.93
2023-03-29T19:44:15.771Z,13.90
2023-03-29T19:46:42.962Z,12.95
2023-03-29T19:49:13.913Z,13.63
2023-03-29T19:51:42.638Z,13.73
2023-03-29T19:54:14.649Z,13.70
2023-03-29T19:56:43.072Z,13.75
2023-03-29T19:59:15.004Z,13.60
2023-03-29T20:01:44.204Z,13.40
2023-03-29T20:04:11.955Z,14.02
2023-03-29T20:06:39.203Z,14.35
2023-03-29T20:09:07.242Z,14.00
2023-03-29T20:11:34.366Z,13.45
2023-03-29T20:14:01.490Z,13.65
2023-03-29T20:16:29.942Z,12.90
2023-03-29T20:18:57.116Z,12.65
2023-03-29T20:21:24.187Z,12.55
2023-03-29T20:23:51.602Z,12.80
2023-03-29T20:26:19.011Z,12.85
2023-03-29T20:28:46.567Z,12.98
2023-03-29T20:31:16.703Z,13.40
2023-03-29T20:33:44.672Z,12.35
2023-03-29T20:36:13.400Z,13.15
2023-03-29T20:38:40.740Z,11.90
2023-03-29T20:41:09.528Z,11.73
2023-03-29T20:43:41.343Z,12.43
2023-03-29T20:46:14.812Z,11.80
2023-03-29T20:48:54.257Z,12.63
2023-03-29T20:51:28.246Z,11.52
2023-03-29T20:54:02.920Z,11.32
2023-03-29T20:56:31.952Z,11.20
2023-03-29T20:58:59.488Z,11.10
2023-03-29T21:01:28.144Z,10.18
2023-03-29T21:03:55.509Z,10.38
2023-03-29T21:06:24.420Z,10.57
2023-03-29T21:08:52.698Z,10.45
2023-03-29T21:11:21.107Z,9.95
2023-03-29T21:13:48.874Z,9.23
2023-03-29T21:16:16.076Z,10.18
2023-03-29T21:18:43.998Z,9.32
2023-03-29T21:21:12.355Z,9.32
2023-03-29T21:23:39.689Z,9.60
2023-03-29T21:26:09.869Z,9.60
2023-03-29T21:28:37.866Z,9.95
2023-03-29T21:31:06.903Z,8.43
2023-03-29T21:33:36.013Z,9.27
2023-03-29T21:36:03.330Z,8.90
2023-03-29T21:38:30.817Z,8.75
2023-03-29T21:40:58.375Z,8.35
2023-03-29T21:43:25.622Z,8.60
2023-03-29T21:45:52.835Z,8.02
2023-03-29T21:48:19.961Z,8.05
2023-03-29T21:50:51.191Z,8.35
2023-03-29T21:53:21.557Z,8.00
2023-03-29T21:55:49.626Z,7.72
2023-03-29T21:58:20.982Z,7.85
2023-03-29T22:00:48.901Z,8.27
2023-03-29T22:03:19.366Z,7.50
2023-03-29T22:06:00.641Z,7.60
2023-03-29T22:08:27.970Z,7.72
2023-03-29T22:10:56.784Z,7.70
2023-03-29T22:13:26.356Z,8.02
2023-03-29T22:15:59.188Z,8.00
2023-03-29T22:18:30.260Z,7.65
2023-03-29T22:20:57.870Z,7.55
2023-03-29T22:23:25.027Z,7.47
2023-03-29T22:25:52.229Z,7.80
2023-03-29T22:28:19.428Z,7.60
2023-03-29T22:30:48.241Z,8.57
2023-03-29T22:33:16.042Z,7.60
2023-03-29T22:35:43.168Z,7.68
2023-03-29T22:38:10.444Z,7.35
2023-03-29T22:40:40.958Z,7.28
2023-03-29T22:43:08.122Z,7.38
2023-03-29T22:45:35.219Z,7.50
2023-03-29T22:48:02.406Z,6.50
2023-03-29T22:50:29.539Z,7.18
2023-03-29T22:52:56.652Z,6.95
2023-03-29T22:55:23.714Z,7.22
2023-03-29T22:57:51.090Z,7.25
2023-03-29T23:00:19.399Z,7.05
2023-03-29T23:02:48.303Z,7.18
2023-03-29T23:05:15.706Z,7.32
2023-03-29T23:07:42.906Z,7.18
2023-03-29T23:10:10.852Z,7.05
2023-03-29T23:12:38.204Z,6.78
2023-03-29T23:15:08.179Z,6.45
2023-03-29T23:17:35.573Z,6.80
2023-03-29T23:20:06.262Z,6.60
2023-03-29T23:22:34.413Z,7.28
2023-03-29T23:25:01.544Z,6.57
2023-03-29T23:27:28.646Z,6.10
2023-03-29T23:29:56.488Z,6.55
2023-03-29T23:32:23.643Z,6.57
2023-03-29T23:34:50.715Z,6.60
2023-03-29T23:37:18.550Z,6.97
2023-03-29T23:39:45.874Z,6.00
2023-03-29T23:42:13.026Z,6.32
2023-03-29T23:44:40.179Z,6.28
2023-03-29T23:47:07.413Z,6.03
2023-03-29T23:49:34.570Z,7.18
2023-03-29T23:52:02.742Z,6.70
2023-03-29T23:54:29.917Z,5.65
2023-03-29T23:56:57.114Z,7.00
2023-03-29T23:59:28.976Z,6.75
